sensor_id;sensor_type;location;lat;lon;timestamp;temperature;humidity
28484;DHT22;15704;48.834;8.736;2024-01-27T00:01:27;12.30;93.60
28484;DHT22;15704;48.834;8.736;2024-01-27T00:03:54;12.30;93.60
28484;DHT22;15704;48.834;8.736;2024-01-27T00:06:21;12.40;93.60
28484;DHT22;15704;48.834;8.736;2024-01-27T00:08:48;12.40;93.60
28484;DHT22;15704;48.834;8.736;2024-01-27T00:11:15;12.40;93.60
28484;DHT22;15704;48.834;8.736;2024-01-27T00:13:41;12.40;93.60
28484;DHT22;15704;48.834;8.736;2024-01-27T00:16:09;12.40;93.50
28484;DHT22;15704;48.834;8.736;2024-01-27T00:18:36;12.40;93.50
28484;DHT22;15704;48.834;8.736;2024-01-27T00:21:07;12.40;93.50
28484;DHT22;15704;48.834;8.736;2024-01-27T00:23:34;12.30;93.50
28484;DHT22;15704;48.834;8.736;2024-01-27T00:26:01;12.30;93.50
28484;DHT22;15704;48.834;8.736;2024-01-27T00:28:28;12.30;93.50
28484;DHT22;15704;48.834;8.736;2024-01-27T00:30:54;12.30;93.50
28484;DHT22;15704;48.834;8.736;2024-01-27T00:33:22;12.30;93.50
28484;DHT22;15704;48.834;8.736;2024-01-27T00:35:49;12.40;93.50
28484;DHT22;15704;48.834;8.736;2024-01-27T00:38:15;12.30;93.50
28484;DHT22;15704;48.834;8.736;2024-01-27T00:40:42;12.30;93.50
28484;DHT22;15704;48.834;8.736;2024-01-27T00:43:09;12.30;93.50
28484;DHT22;15704;48.834;8.736;2024-01-27T00:45:36;12.30;93.50
28484;DHT22;15704;48.834;8.736;2024-01-27T00:48:02;12.30;93.50
28484;DHT22;15704;48.834;8.736;2024-01-27T00:50:30;12.30;93.40
28484;DHT22;15704;48.834;8.736;2024-01-27T00:52:56;12.30;93.40
28484;DHT22;15704;48.834;8.736;2024-01-27T00:55:25;12.30;93.40
28484;DHT22;15704;48.834;8.736;2024-01-27T00:57:52;12.30;93.40
28484;DHT22;15704;48.834;8.736;2024-01-27T01:00:20;12.30;93.50
28484;DHT22;15704;48.834;8.736;2024-01-27T01:02:47;12.30;93.50
28484;DHT22;15704;48.834;8.736;2024-01-27T01:05:14;12.30;93.50
28484;DHT22;15704;48.834;8.736;2024-01-27T01:07:44;12.30;93.40
28484;DHT22;15704;48.834;8.736;2024-01-27T01:10:10;12.30;93.40
28484;DHT22;15704;48.834;8.736;2024-01-27T01:12:37;12.30;93.40
28484;DHT22;15704;48.834;8.736;2024-01-27T01:15:05;12.30;93.50
28484;DHT22;15704;48.834;8.736;2024-01-27T01:17:32;12.30;93.40
28484;DHT22;15704;48.834;8.736;2024-01-27T01:19:58;12.20;93.30
28484;DHT22;15704;48.834;8.736;2024-01-27T01:22:25;12.30;93.30
28484;DHT22;15704;48.834;8.736;2024-01-27T01:24:52;12.30;93.30
28484;DHT22;15704;48.834;8.736;2024-01-27T01:27:19;12.30;93.30
28484;DHT22;15704;48.834;8.736;2024-01-27T01:29:47;12.30;93.30
28484;DHT22;15704;48.834;8.736;2024-01-27T01:32:14;12.30;93.30
28484;DHT22;15704;48.834;8.736;2024-01-27T01:34:42;12.30;93.40
28484;DHT22;15704;48.834;8.736;2024-01-27T01:37:09;12.30;93.40
28484;DHT22;15704;48.834;8.736;2024-01-27T01:39:36;12.30;93.40
28484;DHT22;15704;48.834;8.736;2024-01-27T01:42:05;12.30;93.70
28484;DHT22;15704;48.834;8.736;2024-01-27T01:44:32;12.30;93.40
28484;DHT22;15704;48.834;8.736;2024-01-27T01:47:00;12.30;93.40
28484;DHT22;15704;48.834;8.736;2024-01-27T01:49:28;12.30;93.30
28484;DHT22;15704;48.834;8.736;2024-01-27T01:51:55;12.30;93.30
28484;DHT22;15704;48.834;8.736;2024-01-27T01:54:22;12.30;93.30
28484;DHT22;15704;48.834;8.736;2024-01-27T01:56:55;12.30;93.30
28484;DHT22;15704;48.834;8.736;2024-01-27T01:59:22;12.30;93.30
28484;DHT22;15704;48.834;8.736;2024-01-27T02:01:49;12.30;93.30
28484;DHT22;15704;48.834;8.736;2024-01-27T02:04:15;12.30;93.60
28484;DHT22;15704;48.834;8.736;2024-01-27T02:06:42;12.30;93.30
28484;DHT22;15704;48.834;8.736;2024-01-27T02:09:09;12.30;93.30
28484;DHT22;15704;48.834;8.736;2024-01-27T02:11:36;12.30;93.30
28484;DHT22;15704;48.834;8.736;2024-01-27T02:14:06;12.30;93.30
28484;DHT22;15704;48.834;8.736;2024-01-27T02:16:33;12.20;93.20
28484;DHT22;15704;48.834;8.736;2024-01-27T02:19:00;12.20;93.20
28484;DHT22;15704;48.834;8.736;2024-01-27T02:21:27;12.30;93.20
28484;DHT22;15704;48.834;8.736;2024-01-27T02:23:54;12.30;93.20
28484;DHT22;15704;48.834;8.736;2024-01-27T02:26:21;12.30;93.20
28484;DHT22;15704;48.834;8.736;2024-01-27T02:28:48;12.30;93.20
28484;DHT22;15704;48.834;8.736;2024-01-27T02:31:15;12.30;93.20
28484;DHT22;15704;48.834;8.736;2024-01-27T02:33:42;12.30;93.10
28484;DHT22;15704;48.834;8.736;2024-01-27T02:36:12;12.30;93.10
28484;DHT22;15704;48.834;8.736;2024-01-27T02:38:39;12.30;93.10
28484;DHT22;15704;48.834;8.736;2024-01-27T02:41:06;12.30;93.10
28484;DHT22;15704;48.834;8.736;2024-01-27T02:43:33;12.30;93.10
28484;DHT22;15704;48.834;8.736;2024-01-27T02:45:59;12.30;93.10
28484;DHT22;15704;48.834;8.736;2024-01-27T02:48:26;12.30;93.10
28484;DHT22;15704;48.834;8.736;2024-01-27T02:50:54;12.30;93.10
28484;DHT22;15704;48.834;8.736;2024-01-27T02:53:20;12.30;93.10
28484;DHT22;15704;48.834;8.736;2024-01-27T02:55:47;12.20;93.10
28484;DHT22;15704;48.834;8.736;2024-01-27T02:58:14;12.30;93.40
28484;DHT22;15704;48.834;8.736;2024-01-27T03:00:41;12.30;93.10
28484;DHT22;15704;48.834;8.736;2024-01-27T03:03:08;12.30;93.10
28484;DHT22;15704;48.834;8.736;2024-01-27T03:05:35;12.30;93.10
28484;DHT22;15704;48.834;8.736;2024-01-27T03:08:02;12.30;93.10
28484;DHT22;15704;48.834;8.736;2024-01-27T03:10:29;12.30;93.00
28484;DHT22;15704;48.834;8.736;2024-01-27T03:12:57;12.30;93.00
28484;DHT22;15704;48.834;8.736;2024-01-27T03:15:24;12.30;93.00
28484;DHT22;15704;48.834;8.736;2024-01-27T03:17:51;12.30;93.00
28484;DHT22;15704;48.834;8.736;2024-01-27T03:20:18;12.30;93.00
28484;DHT22;15704;48.834;8.736;2024-01-27T03:22:45;12.20;93.00
28484;DHT22;15704;48.834;8.736;2024-01-27T03:25:12;12.20;93.00
28484;DHT22;15704;48.834;8.736;2024-01-27T03:27:38;12.20;93.00
28484;DHT22;15704;48.834;8.736;2024-01-27T03:30:06;12.20;93.00
28484;DHT22;15704;48.834;8.736;2024-01-27T03:32:34;12.20;93.00
28484;DHT22;15704;48.834;8.736;2024-01-27T03:35:01;12.20;93.00
28484;DHT22;15704;48.834;8.736;2024-01-27T03:37:28;12.20;93.00
28484;DHT22;15704;48.834;8.736;2024-01-27T03:39:55;12.20;93.00
28484;DHT22;15704;48.834;8.736;2024-01-27T03:42:22;12.30;93.00
28484;DHT22;15704;48.834;8.736;2024-01-27T03:44:50;12.20;92.90
28484;DHT22;15704;48.834;8.736;2024-01-27T03:47:18;12.20;92.90
28484;DHT22;15704;48.834;8.736;2024-01-27T03:49:44;12.20;92.90
28484;DHT22;15704;48.834;8.736;2024-01-27T03:52:11;12.20;92.90
28484;DHT22;15704;48.834;8.736;2024-01-27T03:54:38;12.20;92.90
28484;DHT22;15704;48.834;8.736;2024-01-27T03:57:05;12.20;92.90
28484;DHT22;15704;48.834;8.736;2024-01-27T03:59:32;12.20;92.90
28484;DHT22;15704;48.834;8.736;2024-01-27T04:01:59;12.20;92.90
28484;DHT22;15704;48.834;8.736;2024-01-27T04:04:26;12.20;92.90
28484;DHT22;15704;48.834;8.736;2024-01-27T04:07:02;12.20;92.90
28484;DHT22;15704;48.834;8.736;2024-01-27T04:09:29;12.20;93.30
28484;DHT22;15704;48.834;8.736;2024-01-27T04:11:56;12.20;93.00
28484;DHT22;15704;48.834;8.736;2024-01-27T04:14:23;12.20;92.90
28484;DHT22;15704;48.834;8.736;2024-01-27T04:16:50;12.20;92.90
28484;DHT22;15704;48.834;8.736;2024-01-27T04:19:17;12.20;92.90
28484;DHT22;15704;48.834;8.736;2024-01-27T04:21:44;12.30;92.90
28484;DHT22;15704;48.834;8.736;2024-01-27T04:24:11;12.20;92.80
28484;DHT22;15704;48.834;8.736;2024-01-27T04:26:38;12.30;92.80
28484;DHT22;15704;48.834;8.736;2024-01-27T04:29:04;12.30;92.80
28484;DHT22;15704;48.834;8.736;2024-01-27T04:31:39;12.20;92.80
28484;DHT22;15704;48.834;8.736;2024-01-27T04:34:07;12.20;92.80
28484;DHT22;15704;48.834;8.736;2024-01-27T04:36:34;12.20;92.80
28484;DHT22;15704;48.834;8.736;2024-01-27T04:39:01;12.20;92.80
28484;DHT22;15704;48.834;8.736;2024-01-27T04:41:28;12.20;92.80
28484;DHT22;15704;48.834;8.736;2024-01-27T04:43:55;12.20;92.80
28484;DHT22;15704;48.834;8.736;2024-01-27T04:46:23;12.20;93.20
28484;DHT22;15704;48.834;8.736;2024-01-27T04:48:50;12.20;92.80
28484;DHT22;15704;48.834;8.736;2024-01-27T04:51:17;12.20;92.80
28484;DHT22;15704;48.834;8.736;2024-01-27T04:53:44;12.20;92.80
28484;DHT22;15704;48.834;8.736;2024-01-27T04:56:11;12.20;92.80
28484;DHT22;15704;48.834;8.736;2024-01-27T04:58:39;12.20;92.80
28484;DHT22;15704;48.834;8.736;2024-01-27T05:01:06;12.20;92.80
28484;DHT22;15704;48.834;8.736;2024-01-27T05:03:33;12.20;92.70
28484;DHT22;15704;48.834;8.736;2024-01-27T05:06:00;12.20;92.80
28484;DHT22;15704;48.834;8.736;2024-01-27T05:08:27;12.20;92.70
28484;DHT22;15704;48.834;8.736;2024-01-27T05:10:54;12.20;92.70
28484;DHT22;15704;48.834;8.736;2024-01-27T05:13:24;12.20;92.70
28484;DHT22;15704;48.834;8.736;2024-01-27T05:15:51;12.20;92.70
28484;DHT22;15704;48.834;8.736;2024-01-27T05:18:21;12.20;92.70
28484;DHT22;15704;48.834;8.736;2024-01-27T05:20:48;12.20;92.70
28484;DHT22;15704;48.834;8.736;2024-01-27T05:23:15;12.10;92.70
28484;DHT22;15704;48.834;8.736;2024-01-27T05:25:42;12.20;92.80
28484;DHT22;15704;48.834;8.736;2024-01-27T05:28:09;12.10;92.70
28484;DHT22;15704;48.834;8.736;2024-01-27T05:30:36;12.10;92.70
28484;DHT22;15704;48.834;8.736;2024-01-27T05:33:03;12.10;92.70
28484;DHT22;15704;48.834;8.736;2024-01-27T05:35:30;12.10;92.70
28484;DHT22;15704;48.834;8.736;2024-01-27T05:37:57;12.10;93.10
28484;DHT22;15704;48.834;8.736;2024-01-27T05:40:24;12.10;92.70
28484;DHT22;15704;48.834;8.736;2024-01-27T05:42:51;12.10;92.70
28484;DHT22;15704;48.834;8.736;2024-01-27T05:45:17;12.20;92.70
28484;DHT22;15704;48.834;8.736;2024-01-27T05:47:44;12.20;92.70
28484;DHT22;15704;48.834;8.736;2024-01-27T05:50:11;12.10;92.60
28484;DHT22;15704;48.834;8.736;2024-01-27T05:52:38;12.20;92.60
28484;DHT22;15704;48.834;8.736;2024-01-27T05:55:06;12.20;92.60
28484;DHT22;15704;48.834;8.736;2024-01-27T05:57:33;12.20;92.50
28484;DHT22;15704;48.834;8.736;2024-01-27T06:00:00;12.30;92.60
28484;DHT22;15704;48.834;8.736;2024-01-27T06:02:27;12.20;92.50
28484;DHT22;15704;48.834;8.736;2024-01-27T06:04:54;12.20;92.50
28484;DHT22;15704;48.834;8.736;2024-01-27T06:07:21;12.20;92.50
28484;DHT22;15704;48.834;8.736;2024-01-27T06:09:48;12.20;92.50
28484;DHT22;15704;48.834;8.736;2024-01-27T06:12:14;12.20;92.50
28484;DHT22;15704;48.834;8.736;2024-01-27T06:14:42;12.20;92.60
28484;DHT22;15704;48.834;8.736;2024-01-27T06:17:09;12.20;92.50
28484;DHT22;15704;48.834;8.736;2024-01-27T06:19:35;12.20;92.50
28484;DHT22;15704;48.834;8.736;2024-01-27T06:22:03;12.20;92.60
28484;DHT22;15704;48.834;8.736;2024-01-27T06:24:32;12.10;92.50
28484;DHT22;15704;48.834;8.736;2024-01-27T06:26:59;12.10;92.60
28484;DHT22;15704;48.834;8.736;2024-01-27T06:29:26;12.10;92.60
28484;DHT22;15704;48.834;8.736;2024-01-27T06:31:54;12.10;92.50
28484;DHT22;15704;48.834;8.736;2024-01-27T06:34:20;12.20;92.50
28484;DHT22;15704;48.834;8.736;2024-01-27T06:36:47;12.20;92.50
28484;DHT22;15704;48.834;8.736;2024-01-27T06:39:14;12.20;92.50
28484;DHT22;15704;48.834;8.736;2024-01-27T06:41:41;12.20;92.40
28484;DHT22;15704;48.834;8.736;2024-01-27T06:44:08;12.20;92.40
28484;DHT22;15704;48.834;8.736;2024-01-27T06:46:34;12.20;92.40
28484;DHT22;15704;48.834;8.736;2024-01-27T06:49:01;12.20;92.40
28484;DHT22;15704;48.834;8.736;2024-01-27T06:51:29;12.20;92.70
28484;DHT22;15704;48.834;8.736;2024-01-27T06:53:56;12.10;92.40
28484;DHT22;15704;48.834;8.736;2024-01-27T06:56:23;12.10;92.40
28484;DHT22;15704;48.834;8.736;2024-01-27T06:58:49;12.10;92.50
28484;DHT22;15704;48.834;8.736;2024-01-27T07:01:18;12.10;92.50
28484;DHT22;15704;48.834;8.736;2024-01-27T07:03:45;12.10;92.50
28484;DHT22;15704;48.834;8.736;2024-01-27T07:06:12;12.10;92.50
28484;DHT22;15704;48.834;8.736;2024-01-27T07:08:39;12.10;92.50
28484;DHT22;15704;48.834;8.736;2024-01-27T07:11:05;12.10;92.50
28484;DHT22;15704;48.834;8.736;2024-01-27T07:13:33;12.10;92.50
28484;DHT22;15704;48.834;8.736;2024-01-27T07:16:00;12.10;92.50
28484;DHT22;15704;48.834;8.736;2024-01-27T07:18:26;12.10;92.40
28484;DHT22;15704;48.834;8.736;2024-01-27T07:20:54;12.10;92.40
28484;DHT22;15704;48.834;8.736;2024-01-27T07:23:21;12.10;92.40
28484;DHT22;15704;48.834;8.736;2024-01-27T07:25:48;12.10;92.40
28484;DHT22;15704;48.834;8.736;2024-01-27T07:28:15;12.20;92.40
28484;DHT22;15704;48.834;8.736;2024-01-27T07:30:45;12.10;92.40
28484;DHT22;15704;48.834;8.736;2024-01-27T07:33:11;12.10;92.40
28484;DHT22;15704;48.834;8.736;2024-01-27T07:35:38;12.10;92.40
28484;DHT22;15704;48.834;8.736;2024-01-27T07:38:05;12.10;92.40
28484;DHT22;15704;48.834;8.736;2024-01-27T07:40:32;12.10;92.40
28484;DHT22;15704;48.834;8.736;2024-01-27T07:42:59;12.10;92.40
28484;DHT22;15704;48.834;8.736;2024-01-27T07:45:26;12.10;92.40
28484;DHT22;15704;48.834;8.736;2024-01-27T07:47:53;12.10;92.40
28484;DHT22;15704;48.834;8.736;2024-01-27T07:50:19;12.10;92.50
28484;DHT22;15704;48.834;8.736;2024-01-27T07:52:46;12.10;92.50
28484;DHT22;15704;48.834;8.736;2024-01-27T07:55:13;12.00;92.50
28484;DHT22;15704;48.834;8.736;2024-01-27T07:57:40;12.00;92.50
28484;DHT22;15704;48.834;8.736;2024-01-27T08:00:07;12.10;92.50
28484;DHT22;15704;48.834;8.736;2024-01-27T08:02:34;12.10;92.40
28484;DHT22;15704;48.834;8.736;2024-01-27T08:05:03;12.10;92.40
28484;DHT22;15704;48.834;8.736;2024-01-27T08:07:30;12.10;92.40
28484;DHT22;15704;48.834;8.736;2024-01-27T08:09:57;12.10;92.40
28484;DHT22;15704;48.834;8.736;2024-01-27T08:12:26;12.10;92.40
28484;DHT22;15704;48.834;8.736;2024-01-27T08:14:53;12.10;92.40
28484;DHT22;15704;48.834;8.736;2024-01-27T08:17:20;12.00;92.40
28484;DHT22;15704;48.834;8.736;2024-01-27T08:19:48;12.00;92.50
28484;DHT22;15704;48.834;8.736;2024-01-27T08:22:15;12.00;92.50
28484;DHT22;15704;48.834;8.736;2024-01-27T08:24:41;11.90;92.50
28484;DHT22;15704;48.834;8.736;2024-01-27T08:27:08;11.90;92.60
28484;DHT22;15704;48.834;8.736;2024-01-27T08:29:35;11.80;92.60
28484;DHT22;15704;48.834;8.736;2024-01-27T08:32:02;11.80;92.70
28484;DHT22;15704;48.834;8.736;2024-01-27T08:34:29;11.80;92.80
28484;DHT22;15704;48.834;8.736;2024-01-27T08:37:02;11.70;92.80
28484;DHT22;15704;48.834;8.736;2024-01-27T08:39:29;11.70;93.00
28484;DHT22;15704;48.834;8.736;2024-01-27T08:41:56;11.70;93.00
28484;DHT22;15704;48.834;8.736;2024-01-27T08:44:23;11.60;93.00
28484;DHT22;15704;48.834;8.736;2024-01-27T08:46:50;11.60;93.00
28484;DHT22;15704;48.834;8.736;2024-01-27T08:49:17;11.60;93.10
28484;DHT22;15704;48.834;8.736;2024-01-27T08:51:43;11.60;93.10
28484;DHT22;15704;48.834;8.736;2024-01-27T08:54:10;11.60;93.10
28484;DHT22;15704;48.834;8.736;2024-01-27T08:56:40;11.60;93.10
28484;DHT22;15704;48.834;8.736;2024-01-27T08:59:07;11.60;93.10
28484;DHT22;15704;48.834;8.736;2024-01-27T09:01:34;11.60;93.10
28484;DHT22;15704;48.834;8.736;2024-01-27T09:04:01;11.60;93.10
28484;DHT22;15704;48.834;8.736;2024-01-27T09:06:27;11.60;93.10
28484;DHT22;15704;48.834;8.736;2024-01-27T09:08:57;11.70;93.10
28484;DHT22;15704;48.834;8.736;2024-01-27T09:11:24;11.70;93.00
28484;DHT22;15704;48.834;8.736;2024-01-27T09:13:54;11.70;92.90
28484;DHT22;15704;48.834;8.736;2024-01-27T09:16:21;11.70;92.90
28484;DHT22;15704;48.834;8.736;2024-01-27T09:18:48;11.70;92.80
28484;DHT22;15704;48.834;8.736;2024-01-27T09:21:17;11.70;92.80
28484;DHT22;15704;48.834;8.736;2024-01-27T09:23:49;11.80;92.80
28484;DHT22;15704;48.834;8.736;2024-01-27T09:26:16;11.80;92.70
28484;DHT22;15704;48.834;8.736;2024-01-27T09:28:45;11.80;92.70
28484;DHT22;15704;48.834;8.736;2024-01-27T09:31:23;11.90;92.70
28484;DHT22;15704;48.834;8.736;2024-01-27T09:33:51;11.80;92.60
28484;DHT22;15704;48.834;8.736;2024-01-27T09:36:21;11.90;92.60
28484;DHT22;15704;48.834;8.736;2024-01-27T09:38:49;11.90;92.50
28484;DHT22;15704;48.834;8.736;2024-01-27T09:41:17;11.90;92.50
28484;DHT22;15704;48.834;8.736;2024-01-27T09:43:45;12.00;92.50
28484;DHT22;15704;48.834;8.736;2024-01-27T09:46:13;12.00;92.40
28484;DHT22;15704;48.834;8.736;2024-01-27T09:48:40;12.00;92.40
28484;DHT22;15704;48.834;8.736;2024-01-27T09:51:08;12.00;92.40
28484;DHT22;15704;48.834;8.736;2024-01-27T09:53:38;12.00;92.30
28484;DHT22;15704;48.834;8.736;2024-01-27T09:56:06;12.00;92.30
28484;DHT22;15704;48.834;8.736;2024-01-27T09:58:33;12.10;92.20
28484;DHT22;15704;48.834;8.736;2024-01-27T10:01:04;12.10;92.60
28484;DHT22;15704;48.834;8.736;2024-01-27T10:03:32;12.10;92.20
28484;DHT22;15704;48.834;8.736;2024-01-27T10:05:59;12.10;92.20
28484;DHT22;15704;48.834;8.736;2024-01-27T10:08:27;12.10;92.20
28484;DHT22;15704;48.834;8.736;2024-01-27T10:10:55;12.10;92.50
28484;DHT22;15704;48.834;8.736;2024-01-27T10:13:22;12.10;92.20
28484;DHT22;15704;48.834;8.736;2024-01-27T10:16:03;12.00;92.20
28484;DHT22;15704;48.834;8.736;2024-01-27T10:18:34;12.00;92.20
28484;DHT22;15704;48.834;8.736;2024-01-27T10:21:16;12.00;92.20
28484;DHT22;15704;48.834;8.736;2024-01-27T10:23:43;12.00;92.20
28484;DHT22;15704;48.834;8.736;2024-01-27T10:26:10;12.00;92.30
28484;DHT22;15704;48.834;8.736;2024-01-27T10:28:38;12.00;92.20
28484;DHT22;15704;48.834;8.736;2024-01-27T10:31:13;12.00;92.20
28484;DHT22;15704;48.834;8.736;2024-01-27T10:33:51;12.00;92.20
28484;DHT22;15704;48.834;8.736;2024-01-27T10:36:19;12.00;92.20
28484;DHT22;15704;48.834;8.736;2024-01-27T10:38:46;12.00;92.20
28484;DHT22;15704;48.834;8.736;2024-01-27T10:41:23;12.00;92.20
28484;DHT22;15704;48.834;8.736;2024-01-27T10:43:51;12.00;92.20
28484;DHT22;15704;48.834;8.736;2024-01-27T10:46:22;12.00;92.20
28484;DHT22;15704;48.834;8.736;2024-01-27T10:48:52;12.00;92.20
28484;DHT22;15704;48.834;8.736;2024-01-27T10:51:30;12.00;92.20
28484;DHT22;15704;48.834;8.736;2024-01-27T10:54:05;12.10;92.20
28484;DHT22;15704;48.834;8.736;2024-01-27T10:56:35;12.00;92.20
28484;DHT22;15704;48.834;8.736;2024-01-27T10:59:09;12.10;92.20
28484;DHT22;15704;48.834;8.736;2024-01-27T11:01:38;12.00;92.20
28484;DHT22;15704;48.834;8.736;2024-01-27T11:04:06;12.10;92.20
28484;DHT22;15704;48.834;8.736;2024-01-27T11:06:36;12.10;92.20
28484;DHT22;15704;48.834;8.736;2024-01-27T11:09:04;12.10;92.20
28484;DHT22;15704;48.834;8.736;2024-01-27T11:11:32;12.10;92.20
28484;DHT22;15704;48.834;8.736;2024-01-27T11:13:59;12.10;92.20
28484;DHT22;15704;48.834;8.736;2024-01-27T11:16:26;12.00;92.20
28484;DHT22;15704;48.834;8.736;2024-01-27T11:18:55;12.00;92.30
28484;DHT22;15704;48.834;8.736;2024-01-27T11:21:23;12.00;92.30
28484;DHT22;15704;48.834;8.736;2024-01-27T11:23:50;12.00;92.30
28484;DHT22;15704;48.834;8.736;2024-01-27T11:26:23;12.00;92.30
28484;DHT22;15704;48.834;8.736;2024-01-27T11:28:50;12.00;92.40
28484;DHT22;15704;48.834;8.736;2024-01-27T11:31:18;12.00;92.40
28484;DHT22;15704;48.834;8.736;2024-01-27T11:33:49;12.00;92.40
28484;DHT22;15704;48.834;8.736;2024-01-27T11:36:23;11.90;92.40
28484;DHT22;15704;48.834;8.736;2024-01-27T11:38:54;11.90;92.40
28484;DHT22;15704;48.834;8.736;2024-01-27T11:41:26;12.00;92.40
28484;DHT22;15704;48.834;8.736;2024-01-27T11:43:55;11.90;92.40
28484;DHT22;15704;48.834;8.736;2024-01-27T11:46:22;11.90;92.40
28484;DHT22;15704;48.834;8.736;2024-01-27T11:48:49;12.00;92.40
28484;DHT22;15704;48.834;8.736;2024-01-27T11:51:17;11.90;92.70
28484;DHT22;15704;48.834;8.736;2024-01-27T11:53:46;11.90;92.40
28484;DHT22;15704;48.834;8.736;2024-01-27T11:56:13;11.90;92.40
28484;DHT22;15704;48.834;8.736;2024-01-27T11:58:47;11.80;92.40
28484;DHT22;15704;48.834;8.736;2024-01-27T12:01:15;11.80;92.50
28484;DHT22;15704;48.834;8.736;2024-01-27T12:03:42;11.80;92.50
28484;DHT22;15704;48.834;8.736;2024-01-27T12:06:11;11.80;92.60
28484;DHT22;15704;48.834;8.736;2024-01-27T12:08:44;11.70;92.60
28484;DHT22;15704;48.834;8.736;2024-01-27T12:11:16;11.70;92.70
28484;DHT22;15704;48.834;8.736;2024-01-27T12:13:53;11.60;92.70
28484;DHT22;15704;48.834;8.736;2024-01-27T12:16:21;11.60;92.80
28484;DHT22;15704;48.834;8.736;2024-01-27T12:18:52;11.60;92.80
28484;DHT22;15704;48.834;8.736;2024-01-27T12:21:20;11.60;92.90
28484;DHT22;15704;48.834;8.736;2024-01-27T12:23:53;11.50;92.90
28484;DHT22;15704;48.834;8.736;2024-01-27T12:26:22;11.50;92.90
28484;DHT22;15704;48.834;8.736;2024-01-27T12:28:49;11.50;93.00
28484;DHT22;15704;48.834;8.736;2024-01-27T12:31:23;11.40;93.00
28484;DHT22;15704;48.834;8.736;2024-01-27T12:36:21;11.40;93.10
28484;DHT22;15704;48.834;8.736;2024-01-27T12:39:02;11.40;93.20
28484;DHT22;15704;48.834;8.736;2024-01-27T12:41:31;11.30;93.20
28484;DHT22;15704;48.834;8.736;2024-01-27T12:44:01;11.30;93.20
28484;DHT22;15704;48.834;8.736;2024-01-27T12:46:28;11.30;93.30
28484;DHT22;15704;48.834;8.736;2024-01-27T12:48:55;11.30;93.30
28484;DHT22;15704;48.834;8.736;2024-01-27T12:51:22;11.30;93.30
28484;DHT22;15704;48.834;8.736;2024-01-27T12:53:49;11.20;93.30
28484;DHT22;15704;48.834;8.736;2024-01-27T12:56:16;11.20;93.30
28484;DHT22;15704;48.834;8.736;2024-01-27T12:58:43;11.20;93.40
28484;DHT22;15704;48.834;8.736;2024-01-27T13:01:10;11.20;93.40
28484;DHT22;15704;48.834;8.736;2024-01-27T13:03:37;11.20;93.50
28484;DHT22;15704;48.834;8.736;2024-01-27T13:06:09;11.10;93.40
28484;DHT22;15704;48.834;8.736;2024-01-27T13:08:37;11.10;93.50
28484;DHT22;15704;48.834;8.736;2024-01-27T13:11:04;11.10;93.50
28484;DHT22;15704;48.834;8.736;2024-01-27T13:13:31;11.10;93.60
28484;DHT22;15704;48.834;8.736;2024-01-27T13:15:58;11.10;93.60
28484;DHT22;15704;48.834;8.736;2024-01-27T13:18:25;11.10;93.60
28484;DHT22;15704;48.834;8.736;2024-01-27T13:20:52;11.10;93.60
28484;DHT22;15704;48.834;8.736;2024-01-27T13:23:19;11.10;93.60
28484;DHT22;15704;48.834;8.736;2024-01-27T13:25:46;11.10;93.70
28484;DHT22;15704;48.834;8.736;2024-01-27T13:28:32;11.00;93.60
28484;DHT22;15704;48.834;8.736;2024-01-27T13:30:59;11.00;93.70
28484;DHT22;15704;48.834;8.736;2024-01-27T13:33:26;11.00;93.70
28484;DHT22;15704;48.834;8.736;2024-01-27T13:35:59;11.00;93.70
28484;DHT22;15704;48.834;8.736;2024-01-27T13:38:26;11.00;93.80
28484;DHT22;15704;48.834;8.736;2024-01-27T13:40:53;10.90;93.70
28484;DHT22;15704;48.834;8.736;2024-01-27T13:43:20;11.00;93.80
28484;DHT22;15704;48.834;8.736;2024-01-27T13:45:47;10.90;93.80
28484;DHT22;15704;48.834;8.736;2024-01-27T13:48:14;10.90;93.80
28484;DHT22;15704;48.834;8.736;2024-01-27T13:50:42;10.90;93.80
28484;DHT22;15704;48.834;8.736;2024-01-27T13:53:09;10.90;93.90
28484;DHT22;15704;48.834;8.736;2024-01-27T13:55:36;10.90;93.90
28484;DHT22;15704;48.834;8.736;2024-01-27T13:58:04;10.90;93.90
28484;DHT22;15704;48.834;8.736;2024-01-27T14:00:32;10.90;93.90
28484;DHT22;15704;48.834;8.736;2024-01-27T14:03:01;10.80;93.90
28484;DHT22;15704;48.834;8.736;2024-01-27T14:05:28;10.80;93.90
28484;DHT22;15704;48.834;8.736;2024-01-27T14:07:56;10.90;93.90
28484;DHT22;15704;48.834;8.736;2024-01-27T14:10:23;10.90;93.90
28484;DHT22;15704;48.834;8.736;2024-01-27T14:12:51;10.80;93.90
28484;DHT22;15704;48.834;8.736;2024-01-27T14:15:18;10.90;93.90
28484;DHT22;15704;48.834;8.736;2024-01-27T14:17:45;10.80;93.90
28484;DHT22;15704;48.834;8.736;2024-01-27T14:20:12;10.80;93.90
28484;DHT22;15704;48.834;8.736;2024-01-27T14:22:40;10.80;93.90
28484;DHT22;15704;48.834;8.736;2024-01-27T14:25:07;10.90;93.90
28484;DHT22;15704;48.834;8.736;2024-01-27T14:27:34;10.80;93.90
28484;DHT22;15704;48.834;8.736;2024-01-27T14:30:02;10.80;93.90
28484;DHT22;15704;48.834;8.736;2024-01-27T14:32:29;10.90;93.90
28484;DHT22;15704;48.834;8.736;2024-01-27T14:34:55;10.90;93.90
28484;DHT22;15704;48.834;8.736;2024-01-27T14:37:23;10.80;93.90
28484;DHT22;15704;48.834;8.736;2024-01-27T14:39:50;10.90;93.90
28484;DHT22;15704;48.834;8.736;2024-01-27T14:42:17;10.90;93.80
28484;DHT22;15704;48.834;8.736;2024-01-27T14:44:44;10.90;93.80
28484;DHT22;15704;48.834;8.736;2024-01-27T14:47:16;10.90;93.80
28484;DHT22;15704;48.834;8.736;2024-01-27T14:49:43;11.00;93.80
28484;DHT22;15704;48.834;8.736;2024-01-27T14:52:12;11.00;93.70
28484;DHT22;15704;48.834;8.736;2024-01-27T14:54:39;11.00;93.70
28484;DHT22;15704;48.834;8.736;2024-01-27T14:57:06;11.00;93.70
28484;DHT22;15704;48.834;8.736;2024-01-27T14:59:37;11.00;93.60
28484;DHT22;15704;48.834;8.736;2024-01-27T15:02:08;11.10;93.60
28484;DHT22;15704;48.834;8.736;2024-01-27T15:04:36;11.10;93.60
28484;DHT22;15704;48.834;8.736;2024-01-27T15:07:07;11.10;93.50
28484;DHT22;15704;48.834;8.736;2024-01-27T15:09:35;11.10;93.50
28484;DHT22;15704;48.834;8.736;2024-01-27T15:12:02;11.10;93.40
28484;DHT22;15704;48.834;8.736;2024-01-27T15:14:30;11.20;93.40
28484;DHT22;15704;48.834;8.736;2024-01-27T15:16:58;11.10;93.30
28484;DHT22;15704;48.834;8.736;2024-01-27T15:19:25;11.20;93.30
28484;DHT22;15704;48.834;8.736;2024-01-27T15:21:57;11.20;93.20
28484;DHT22;15704;48.834;8.736;2024-01-27T15:24:24;11.30;93.20
28484;DHT22;15704;48.834;8.736;2024-01-27T15:26:51;11.30;93.20
28484;DHT22;15704;48.834;8.736;2024-01-27T15:29:30;11.30;93.10
28484;DHT22;15704;48.834;8.736;2024-01-27T15:31:57;11.30;93.00
28484;DHT22;15704;48.834;8.736;2024-01-27T15:34:24;11.40;93.00
28484;DHT22;15704;48.834;8.736;2024-01-27T15:36:50;11.40;93.00